CZFM/ZFM METAR and TAF weather

Enter ICAO airport designator
Station Type Date Time Source
CZFM METAR 2019/08/21 23:00 UTC NOAA

CZFM 212300Z 35007KT 300V020 35SM BKN160 11/03 A2968 RMK AC6 /R0.0/AFT 1300Z/LAST OBS/NXT 221300Z SLP053


Station Type Date Time Source
CZFM Decoded METAR 2019/08/21 23:00 UTC NOAA

Station name not available
Aug 21, 2019 - 07:00 PM EDT / 2019.08.21 2300 UTC
Wind: from the N (350 degrees) at 8 MPH (7 KT) (direction variable):0
Visibility: 35 mile(s):0
Sky conditions: mostly cloudy
Temperature: 51 F (11 C)
Dew Point: 37 F (3 C)
Relative Humidity: 57%
Pressure (altimeter): 29.68 in. Hg (1005 hPa)
ob: CZFM 212300Z 35007KT 300V020 35SM BKN160 11/03 A2968 RMK AC6 /R0.0/AFT 1300Z/LAST OBS/NXT 221300Z SLP053
cycle: 23

Station Type Date Time Source
CZFM TAF 2019/08/21 19:00 UTC NOAA

TAF CZFM 211838Z 2119/2123 VRB03KT P6SM FEW080 BKN140
RMK NXT FCST WILL BE ISSUED AT 221445Z

Example: see airport list